This is the latest recevied weather packets stored in our database for station/object JH7MHZ-13. If no packets are shown the sender has not sent any weather packets the latest 10 day(s).
| Time | Temp. | Humidity | Pressure | Rain* | Wind** | Luminosity | Snow |
|---|---|---|---|---|---|---|---|
| 1777630018 | 16.11° C | 87% | 971.4 hPa | 0 mm | - | - | - |
| 1777626418 | 17.22° C | 83% | 972.7 hPa | 0 mm | - | - | - |
| 1777622817 | 18.89° C | 74% | 973.3 hPa | 0 mm | - | - | - |
| 1777619218 | 18.89° C | 72% | 975.2 hPa | 0 mm | - | - | - |
| 1777615617 | 17.78° C | 74% | 976.8 hPa | 0 mm | - | - | - |
| 1777612015 | 16.67° C | 77% | 978.8 hPa | 0 mm | - | - | - |
| 1777608416 | 17.22° C | 71% | 980.9 hPa | 0 mm | - | - | - |
| 1777604816 | 16.11° C | 78% | 983.3 hPa | 0 mm | - | - | - |
| 1777601215 | 14.44° C | 91% | 984.7 hPa | 0 mm | - | - | - |
| 1777594014 | 16.11° C | 76% | 987.9 hPa | 0 mm | - | - | - |
| 1777590412 | 15.56° C | 73% | 989.3 hPa | 0 mm | - | - | - |
| 1777586811 | 10.56° C | 81% | 990.6 hPa | 0 mm | - | - | - |
| 1777583211 | 6.67° C | 86% | 992 hPa | 0 mm | - | - | - |
| 1777579610 | 5.56° C | 86% | 993.7 hPa | 0 mm | - | - | - |
| 1777576010 | 5.56° C | 85% | 993.7 hPa | 0 mm | - | - | - |
| 1777572409 | 5° C | 87% | 994.3 hPa | 0 mm | - | - | - |
| 1777568809 | 5.56° C | 88% | 995.4 hPa | 0 mm | - | - | - |
| 1777565208 | 6.11° C | 88% | 996.1 hPa | 0 mm | - | - | - |
| 1777561608 | 7.22° C | 86% | 997 hPa | 0 mm | - | - | - |
| 1777558007 | 7.22° C | 84% | 998.1 hPa | 0 mm | - | - | - |
| 1777554406 | 7.78° C | 83% | 998.6 hPa | 0 mm | - | - | - |
| 1777550806 | 8.33° C | 82% | 999 hPa | 0 mm | - | - | - |
| 1777547205 | 9.44° C | 79% | 999.3 hPa | 0 mm | - | - | - |
| 1777543605 | 11.67° C | 72% | 999.1 hPa | 0 mm | - | - | - |
| 1777540004 | 15° C | 53% | 998.3 hPa | 0 mm | - | - | - |
* Rain latest hour (hover to see other rain measurements)
** Current wind speed in m/s (hover to see current wind gust speed)